Time;durP1;ratioP1;P1;durP2;ratioP2;P2;SDS_P1;SDS_P2;PMS_P1;PMS_P2;Temp;Humidity;BMP_temperature;BMP_pressure;BME280_temperature;BME280_humidity;BME280_pressure;Samples;Min_cycle;Max_cycle;Signal;HPM_P1;HPM_P2
2023/11/05 00:00:24;;;;;;;2.40;1.08;;;;;;;;;;5036555;28;20128;-81
2023/11/05 00:02:50;;;;;;;2.50;1.10;;;;;;;;;;5034950;28;20080;-85
2023/11/05 00:05:15;;;;;;;3.25;2.80;;;;;;;;;;5017532;28;20075;-83
2023/11/05 00:07:41;;;;;;;2.83;1.50;;;;;;;;;;5024486;28;20002;-83
2023/11/05 00:10:10;;;;;;;7.70;1.00;;;;;;;;;;5030551;28;20026;-86
2023/11/05 00:12:36;;;;;;;2.30;1.10;;;;;;;;;;5030053;28;20436;-83
2023/11/05 00:15:02;;;;;;;2.72;1.08;;;;;;;;;;5014842;28;20037;-86
2023/11/05 00:17:28;;;;;;;3.25;1.58;;;;;;;;;;5014696;28;20018;-84
2023/11/05 00:19:53;;;;;;;2.67;0.93;;;;;;;;;;5014285;28;20417;-84
2023/11/05 00:22:19;;;;;;;2.47;1.13;;;;;;;;;;5015741;28;20033;-85
2023/11/05 00:24:45;;;;;;;1.90;1.00;;;;;;;;;;5015943;28;20041;-85
2023/11/05 00:27:11;;;;;;;2.38;1.13;;;;;;;;;;5030904;28;20199;-84
2023/11/05 00:29:36;;;;;;;1.85;1.27;;;;;;;;;;5034052;28;20025;-86
2023/11/05 00:32:02;;;;;;;3.25;1.38;;;;;;;;;;5021439;28;20038;-85
2023/11/05 00:34:28;;;;;;;3.50;1.27;;;;;;;;;;5015484;28;20063;-85
2023/11/05 00:36:54;;;;;;;1.80;0.82;;;;;;;;;;5013715;28;20026;-86
2023/11/05 00:39:21;;;;;;;2.28;1.15;;;;;;;;;;5012940;28;20022;-84
2023/11/05 00:41:47;;;;;;;1.45;1.00;;;;;;;;;;5013002;28;20006;-84
2023/11/05 00:44:12;;;;;;;2.90;0.95;;;;;;;;;;5015549;28;20036;-83
2023/11/05 00:46:38;;;;;;;1.25;0.90;;;;;;;;;;5033993;28;20071;-83
2023/11/05 00:49:04;;;;;;;3.67;1.10;;;;;;;;;;5033581;28;20025;-85
2023/11/05 00:51:30;;;;;;;1.85;1.10;;;;;;;;;;5016808;28;20245;-85
2023/11/05 00:53:55;;;;;;;1.65;1.10;;;;;;;;;;5031983;28;20025;-84
2023/11/05 00:56:21;;;;;;;1.98;1.08;;;;;;;;;;5016218;28;20025;-85
2023/11/05 00:58:46;;;;;;;1.30;1.20;;;;;;;;;;5034502;28;20029;-85
2023/11/05 01:01:14;;;;;;;2.95;1.30;;;;;;;;;;5015914;28;20022;-86
2023/11/05 01:03:39;;;;;;;1.38;0.70;;;;;;;;;;5034146;28;20522;-85
2023/11/05 01:06:05;;;;;;;2.88;1.27;;;;;;;;;;5016139;28;20152;-84
2023/11/05 01:08:30;;;;;;;2.55;0.80;;;;;;;;;;5034096;28;20029;-84
2023/11/05 01:10:56;;;;;;;1.75;0.80;;;;;;;;;;5033713;28;20029;-83
2023/11/05 01:13:22;;;;;;;1.27;0.88;;;;;;;;;;5034042;28;20021;-85
2023/11/05 01:15:48;;;;;;;2.05;1.20;;;;;;;;;;5015403;28;20101;-85
2023/11/05 01:18:14;;;;;;;1.60;0.70;;;;;;;;;;5032818;28;20048;-83
2023/11/05 01:20:39;;;;;;;1.92;0.77;;;;;;;;;;5033156;28;20061;-85
2023/11/05 01:23:05;;;;;;;3.30;1.20;;;;;;;;;;5032221;28;20072;-84
2023/11/05 01:25:30;;;;;;;2.45;0.75;;;;;;;;;;5032874;28;20029;-85
2023/11/05 01:27:56;;;;;;;0.85;0.70;;;;;;;;;;5032477;28;20100;-86
2023/11/05 01:30:22;;;;;;;2.50;1.25;;;;;;;;;;5032365;28;20055;-84
2023/11/05 01:32:47;;;;;;;1.67;0.82;;;;;;;;;;5033647;28;20033;-85
2023/11/05 01:35:13;;;;;;;1.95;0.98;;;;;;;;;;5031326;28;20472;-84
2023/11/05 01:37:40;;;;;;;1.52;0.90;;;;;;;;;;5033678;28;20464;-84
2023/11/05 01:40:06;;;;;;;2.05;0.90;;;;;;;;;;5032193;28;20362;-84
2023/11/05 01:42:32;;;;;;;2.03;0.90;;;;;;;;;;5015316;28;20519;-85
2023/11/05 01:44:57;;;;;;;5.03;1.17;;;;;;;;;;5033203;28;20013;-84
2023/11/05 01:47:24;;;;;;;1.63;1.15;;;;;;;;;;5033591;28;20056;-83
2023/11/05 01:49:50;;;;;;;1.05;0.80;;;;;;;;;;5032569;28;20068;-83
2023/11/05 01:52:18;;;;;;;3.03;0.80;;;;;;;;;;5032812;28;20025;-84
2023/11/05 01:54:43;;;;;;;1.83;0.82;;;;;;;;;;4998681;28;20619;-85
2023/11/05 01:57:09;;;;;;;1.70;0.80;;;;;;;;;;5030894;28;20081;-85
2023/11/05 01:59:35;;;;;;;1.58;1.05;;;;;;;;;;5023359;28;20038;-85
2023/11/05 02:02:01;;;;;;;1.42;0.90;;;;;;;;;;5014128;28;20057;-82
2023/11/05 02:04:28;;;;;;;2.17;0.98;;;;;;;;;;5014627;28;20036;-83
2023/11/05 02:06:53;;;;;;;2.25;1.17;;;;;;;;;;5016616;28;20450;-86
2023/11/05 02:09:19;;;;;;;1.67;0.93;;;;;;;;;;5014705;28;20064;-84
2023/11/05 02:11:45;;;;;;;1.88;0.95;;;;;;;;;;5015148;28;20030;-85
2023/11/05 02:14:13;;;;;;;1.35;1.10;;;;;;;;;;5013421;28;20026;-82
2023/11/05 02:16:40;;;;;;;1.63;0.77;;;;;;;;;;5015490;28;20037;-84
2023/11/05 02:19:06;;;;;;;1.10;1.00;;;;;;;;;;5027601;28;20056;-85
2023/11/05 02:21:40;;;;;;;1.15;0.90;;;;;;;;;;5033696;28;20021;-84
2023/11/05 02:24:06;;;;;;;4.35;0.75;;;;;;;;;;5035459;28;20013;-82
2023/11/05 02:26:32;;;;;;;2.15;0.80;;;;;;;;;;5034615;28;20036;-83
2023/11/05 02:28:58;;;;;;;1.05;0.60;;;;;;;;;;5034930;28;20133;-84
2023/11/05 02:31:23;;;;;;;3.90;1.60;;;;;;;;;;5034828;28;20087;-85
2023/11/05 02:33:49;;;;;;;0.88;0.57;;;;;;;;;;5035595;28;20104;-87
2023/11/05 02:36:15;;;;;;;2.38;0.95;;;;;;;;;;5035651;28;20033;-84
2023/11/05 02:38:41;;;;;;;1.40;1.00;;;;;;;;;;5018922;28;20322;-85
2023/11/05 02:41:10;;;;;;;0.98;0.80;;;;;;;;;;5035820;28;20046;-85
2023/11/05 02:43:36;;;;;;;1.48;0.80;;;;;;;;;;5036300;28;20442;-83
2023/11/05 02:46:02;;;;;;;4.55;0.93;;;;;;;;;;5035582;28;20064;-84
2023/11/05 02:48:28;;;;;;;1.33;0.70;;;;;;;;;;5038311;28;20504;-85
2023/11/05 02:50:54;;;;;;;2.78;0.70;;;;;;;;;;5017640;28;20029;-83
2023/11/05 02:53:21;;;;;;;1.83;0.80;;;;;;;;;;5035332;28;20412;-86
2023/11/05 02:55:46;;;;;;;0.73;0.60;;;;;;;;;;5016882;28;20121;-85
2023/11/05 02:58:13;;;;;;;5.93;0.90;;;;;;;;;;5034099;28;20451;-87
2023/11/05 03:00:38;;;;;;;1.30;0.93;;;;;;;;;;5019322;28;20029;-83
2023/11/05 03:03:03;;;;;;;2.40;0.88;;;;;;;;;;5019110;28;20030;-83
2023/11/05 03:05:29;;;;;;;0.63;0.63;;;;;;;;;;5018329;28;20038;-83
2023/11/05 03:07:55;;;;;;;1.65;0.82;;;;;;;;;;5034790;28;20412;-85
2023/11/05 03:10:20;;;;;;;1.00;0.75;;;;;;;;;;5033541;28;20061;-84
2023/11/05 03:12:46;;;;;;;2.00;0.80;;;;;;;;;;5035335;28;20029;-86
2023/11/05 03:15:12;;;;;;;1.23;0.90;;;;;;;;;;5016324;28;20025;-87
2023/11/05 03:17:38;;;;;;;4.05;0.70;;;;;;;;;;5035183;28;20041;-85
2023/11/05 03:20:07;;;;;;;0.77;0.60;;;;;;;;;;5035449;28;20102;-86
2023/11/05 03:22:38;;;;;;;1.17;0.85;;;;;;;;;;5017675;28;20033;-87
2023/11/05 03:25:05;;;;;;;1.60;0.70;;;;;;;;;;5002286;28;20365;-84
2023/11/05 03:27:31;;;;;;;1.88;0.90;;;;;;;;;;5032782;28;20125;-86
2023/11/05 03:29:57;;;;;;;2.17;0.70;;;;;;;;;;5035117;28;20102;-85
2023/11/05 03:32:22;;;;;;;0.98;0.57;;;;;;;;;;5032998;28;20030;-84
2023/11/05 03:34:48;;;;;;;3.38;0.77;;;;;;;;;;5034904;28;20076;-85
2023/11/05 03:37:14;;;;;;;1.77;0.65;;;;;;;;;;5033466;28;20491;-84
2023/11/05 03:39:40;;;;;;;1.38;0.70;;;;;;;;;;5032589;28;20025;-84
2023/11/05 03:42:07;;;;;;;0.90;0.60;;;;;;;;;;5016075;28;20025;-82
2023/11/05 03:44:34;;;;;;;3.38;0.73;;;;;;;;;;5016174;28;20025;-85
2023/11/05 03:47:00;;;;;;;2.67;0.75;;;;;;;;;;5015803;28;20025;-84
2023/11/05 03:49:26;;;;;;;1.45;0.65;;;;;;;;;;5015954;28;20083;-84
2023/11/05 03:51:53;;;;;;;1.45;0.70;;;;;;;;;;5016066;28;20029;-84
2023/11/05 03:54:19;;;;;;;1.95;0.70;;;;;;;;;;5032205;28;20033;-85
2023/11/05 03:56:44;;;;;;;2.40;0.73;;;;;;;;;;5032882;28;20029;-85
2023/11/05 03:59:10;;;;;;;0.43;0.40;;;;;;;;;;5031683;28;20049;-86
2023/11/05 04:01:35;;;;;;;1.65;0.88;;;;;;;;;;5031983;28;20120;-85
2023/11/05 04:04:01;;;;;;;2.25;0.73;;;;;;;;;;5031608;28;20036;-85
2023/11/05 04:06:27;;;;;;;1.27;0.70;;;;;;;;;;5032284;28;20033;-85
2023/11/05 04:08:52;;;;;;;1.35;0.60;;;;;;;;;;5032485;28;20061;-84
2023/11/05 04:11:19;;;;;;;1.50;0.90;;;;;;;;;;5015482;28;20064;-85
2023/11/05 04:13:45;;;;;;;2.33;0.80;;;;;;;;;;5033847;28;20104;-84
2023/11/05 04:16:11;;;;;;;2.22;0.60;;;;;;;;;;5033866;28;20025;-83
2023/11/05 04:18:37;;;;;;;0.95;0.50;;;;;;;;;;5032953;28;20057;-84
2023/11/05 04:21:03;;;;;;;1.73;0.73;;;;;;;;;;5032816;28;20128;-85
2023/11/05 04:23:29;;;;;;;0.90;0.77;;;;;;;;;;5015393;28;20096;-85
2023/11/05 04:25:54;;;;;;;1.60;0.80;;;;;;;;;;5033005;28;20036;-84
2023/11/05 04:28:20;;;;;;;1.30;0.90;;;;;;;;;;5032681;28;20025;-85
2023/11/05 04:30:46;;;;;;;1.75;0.75;;;;;;;;;;5015394;28;20485;-83
2023/11/05 04:33:11;;;;;;;3.05;1.02;;;;;;;;;;5015264;28;20052;-85
2023/11/05 04:35:37;;;;;;;2.80;1.00;;;;;;;;;;5032339;28;20028;-83
2023/11/05 04:38:03;;;;;;;1.25;0.50;;;;;;;;;;5014054;28;20405;-83
2023/11/05 04:40:28;;;;;;;5.00;0.90;;;;;;;;;;5014925;28;20029;-85
2023/11/05 04:42:54;;;;;;;0.65;0.50;;;;;;;;;;5030951;28;20025;-85
2023/11/05 04:45:20;;;;;;;2.00;0.80;;;;;;;;;;5014367;28;20525;-83
2023/11/05 04:47:47;;;;;;;2.78;0.80;;;;;;;;;;5032118;28;20029;-83
2023/11/05 04:50:12;;;;;;;1.40;0.80;;;;;;;;;;5032498;28;20029;-84
2023/11/05 04:52:38;;;;;;;0.80;0.45;;;;;;;;;;5032924;28;20033;-85
2023/11/05 04:55:04;;;;;;;4.30;1.48;;;;;;;;;;5032987;28;20045;-84
2023/11/05 04:57:30;;;;;;;1.30;0.80;;;;;;;;;;5015809;28;20037;-84
2023/11/05 04:59:56;;;;;;;2.95;0.70;;;;;;;;;;5033654;28;20033;-85
2023/11/05 05:02:21;;;;;;;3.00;0.80;;;;;;;;;;5034415;28;20037;-84
2023/11/05 05:04:47;;;;;;;1.55;0.77;;;;;;;;;;5017113;28;20029;-85
2023/11/05 05:07:14;;;;;;;2.10;0.75;;;;;;;;;;5034537;28;20021;-84
2023/11/05 05:09:39;;;;;;;3.00;0.70;;;;;;;;;;5032121;28;20379;-83
2023/11/05 05:12:06;;;;;;;2.50;0.90;;;;;;;;;;5032779;28;20473;-83
2023/11/05 05:14:31;;;;;;;6.97;1.30;;;;;;;;;;5032494;28;20034;-84
2023/11/05 05:16:58;;;;;;;3.30;1.10;;;;;;;;;;5033688;28;20160;-85
2023/11/05 05:19:24;;;;;;;1.92;0.98;;;;;;;;;;5022323;28;20378;-83
2023/11/05 05:21:49;;;;;;;2.58;0.63;;;;;;;;;;5012600;28;20034;-84
2023/11/05 05:24:15;;;;;;;7.53;0.75;;;;;;;;;;5013144;28;20069;-83
2023/11/05 05:26:41;;;;;;;2.40;0.63;;;;;;;;;;5012699;28;20057;-83
2023/11/05 05:29:07;;;;;;;0.47;0.45;;;;;;;;;;5012198;28;20060;-84
2023/11/05 05:31:32;;;;;;;1.40;0.55;;;;;;;;;;5012917;28;20038;-84
2023/11/05 05:33:59;;;;;;;1.17;0.60;;;;;;;;;;5013629;28;20030;-85
2023/11/05 05:36:25;;;;;;;2.60;1.08;;;;;;;;;;5013764;28;20113;-84
2023/11/05 05:38:52;;;;;;;0.43;0.43;;;;;;;;;;5013472;28;20068;-84
2023/11/05 05:41:17;;;;;;;3.40;0.65;;;;;;;;;;5031233;28;20100;-85
2023/11/05 05:43:43;;;;;;;1.95;0.60;;;;;;;;;;5018558;28;20033;-84
2023/11/05 05:46:15;;;;;;;1.55;0.70;;;;;;;;;;5036493;28;20052;-84
2023/11/05 05:48:41;;;;;;;1.15;0.85;;;;;;;;;;5036342;28;20040;-83
2023/11/05 05:51:12;;;;;;;0.93;0.60;;;;;;;;;;5036504;28;20021;-83
2023/11/05 05:53:38;;;;;;;6.95;0.85;;;;;;;;;;5018755;28;20372;-85
2023/11/05 05:56:05;;;;;;;2.70;1.65;;;;;;;;;;5022548;28;20096;-85
2023/11/05 05:58:30;;;;;;;0.88;0.57;;;;;;;;;;5015633;28;20053;-85
2023/11/05 06:00:56;;;;;;;1.25;0.82;;;;;;;;;;5014937;28;20555;-85
2023/11/05 06:03:21;;;;;;;3.00;0.75;;;;;;;;;;5015802;28;20030;-85
2023/11/05 06:05:47;;;;;;;1.40;0.80;;;;;;;;;;5015896;28;20108;-83
2023/11/05 06:08:12;;;;;;;3.03;0.75;;;;;;;;;;5017837;28;20029;-85
2023/11/05 06:10:38;;;;;;;0.90;0.52;;;;;;;;;;5035501;28;20040;-84
2023/11/05 06:13:03;;;;;;;2.25;0.82;;;;;;;;;;5036004;28;20033;-83
2023/11/05 06:15:29;;;;;;;2.33;0.90;;;;;;;;;;5017649;28;20025;-82
2023/11/05 06:17:54;;;;;;;0.98;0.73;;;;;;;;;;5036208;28;20074;-84
2023/11/05 06:20:20;;;;;;;4.95;0.77;;;;;;;;;;5033933;28;20034;-84
2023/11/05 06:22:45;;;;;;;3.00;0.77;;;;;;;;;;5035353;28;20035;-82
2023/11/05 06:25:11;;;;;;;1.40;0.85;;;;;;;;;;5017412;28;20388;-84
2023/11/05 06:27:38;;;;;;;2.30;1.00;;;;;;;;;;5033770;28;20028;-84
2023/11/05 06:30:08;;;;;;;1.27;0.82;;;;;;;;;;5035953;28;20404;-85
2023/11/05 06:32:34;;;;;;;1.02;0.75;;;;;;;;;;5020341;28;20548;-86
2023/11/05 06:34:59;;;;;;;1.65;0.90;;;;;;;;;;5014503;28;20022;-85
2023/11/05 06:37:25;;;;;;;1.30;0.70;;;;;;;;;;5015324;28;20026;-85
2023/11/05 06:39:51;;;;;;;2.45;0.70;;;;;;;;;;5016413;28;20171;-83
2023/11/05 06:42:16;;;;;;;1.45;0.60;;;;;;;;;;5015495;28;20040;-84
2023/11/05 06:44:42;;;;;;;2.58;0.93;;;;;;;;;;5014115;28;20028;-84
2023/11/05 06:47:08;;;;;;;1.90;0.82;;;;;;;;;;5014736;28;20135;-83
2023/11/05 06:49:34;;;;;;;3.40;0.98;;;;;;;;;;5015261;28;20414;-84
2023/11/05 06:51:59;;;;;;;1.65;0.68;;;;;;;;;;5014674;28;20044;-84
2023/11/05 06:54:25;;;;;;;2.95;1.00;;;;;;;;;;5017897;28;20076;-84
2023/11/05 06:56:51;;;;;;;2.75;1.02;;;;;;;;;;5036151;28;20116;-84
2023/11/05 06:59:16;;;;;;;2.25;0.63;;;;;;;;;;5018206;28;20025;-82
2023/11/05 07:01:42;;;;;;;2.33;1.00;;;;;;;;;;5036348;28;20025;-83
2023/11/05 07:04:07;;;;;;;1.38;0.80;;;;;;;;;;5042307;28;20025;-84
2023/11/05 07:06:33;;;;;;;1.40;0.65;;;;;;;;;;5039965;28;20603;-82
2023/11/05 07:08:59;;;;;;;1.42;0.85;;;;;;;;;;5026521;28;20422;-85
2023/11/05 07:11:24;;;;;;;1.80;0.82;;;;;;;;;;5024667;28;20061;-83
2023/11/05 07:13:51;;;;;;;8.80;1.38;;;;;;;;;;5024751;28;20022;-83
2023/11/05 07:16:16;;;;;;;1.13;0.65;;;;;;;;;;5025151;28;20029;-84
2023/11/05 07:18:42;;;;;;;3.78;0.57;;;;;;;;;;5025891;28;20124;-84
2023/11/05 07:21:11;;;;;;;1.65;0.50;;;;;;;;;;5025500;28;20033;-82
2023/11/05 07:23:38;;;;;;;2.42;0.70;;;;;;;;;;5042689;28;20089;-83
2023/11/05 07:26:05;;;;;;;2.25;0.60;;;;;;;;;;5026850;28;20092;-84
2023/11/05 07:28:32;;;;;;;1.10;0.70;;;;;;;;;;5028337;28;20025;-81
2023/11/05 07:30:58;;;;;;;2.35;0.60;;;;;;;;;;5045311;28;20030;-82
2023/11/05 07:33:24;;;;;;;3.03;0.88;;;;;;;;;;5024649;28;20513;-84
2023/11/05 07:35:49;;;;;;;4.65;0.82;;;;;;;;;;5044507;28;20033;-82
2023/11/05 07:38:15;;;;;;;2.63;0.85;;;;;;;;;;5042623;28;20397;-82
2023/11/05 07:40:41;;;;;;;2.58;0.68;;;;;;;;;;5033409;28;20041;-83
2023/11/05 07:43:06;;;;;;;1.40;0.65;;;;;;;;;;5021658;28;20049;-84
2023/11/05 07:45:32;;;;;;;1.27;0.80;;;;;;;;;;5023424;28;20041;-84
2023/11/05 07:47:58;;;;;;;1.05;0.70;;;;;;;;;;5023718;28;20033;-83
2023/11/05 07:50:25;;;;;;;1.00;0.50;;;;;;;;;;5023275;28;20470;-85
2023/11/05 07:52:51;;;;;;;2.58;0.80;;;;;;;;;;5021849;28;20037;-85
2023/11/05 07:55:17;;;;;;;3.78;1.50;;;;;;;;;;5024694;28;20030;-86
2023/11/05 07:57:45;;;;;;;2.50;0.77;;;;;;;;;;5024266;28;20030;-85
2023/11/05 08:00:18;;;;;;;3.63;1.00;;;;;;;;;;5021906;28;20101;-83
2023/11/05 08:02:48;;;;;;;0.90;0.82;;;;;;;;;;5023450;28;20041;-84
2023/11/05 08:05:17;;;;;;;1.20;0.70;;;;;;;;;;5024739;28;20081;-82
2023/11/05 08:07:43;;;;;;;1.40;0.90;;;;;;;;;;5024556;28;20025;-81
2023/11/05 08:10:08;;;;;;;2.83;0.80;;;;;;;;;;5021766;28;20029;-83
2023/11/05 08:12:35;;;;;;;2.65;0.88;;;;;;;;;;5022939;28;20024;-83
2023/11/05 08:15:01;;;;;;;3.17;0.60;;;;;;;;;;5035649;28;20469;-84
2023/11/05 08:17:28;;;;;;;3.38;1.98;;;;;;;;;;5043624;28;20029;-83
2023/11/05 08:19:54;;;;;;;3.10;1.13;;;;;;;;;;5025802;28;20053;-85
2023/11/05 08:22:20;;;;;;;1.52;0.80;;;;;;;;;;5026523;28;20097;-82
2023/11/05 08:24:46;;;;;;;0.75;0.70;;;;;;;;;;5044193;28;20033;-84
2023/11/05 08:27:12;;;;;;;1.10;0.90;;;;;;;;;;5029803;28;20026;-84
2023/11/05 08:29:41;;;;;;;6.15;2.25;;;;;;;;;;5005562;28;20168;-83
2023/11/05 08:32:06;;;;;;;2.22;1.05;;;;;;;;;;5005565;28;20033;-85
2023/11/05 08:34:33;;;;;;;1.08;0.80;;;;;;;;;;5024299;28;20030;-85
2023/11/05 08:37:02;;;;;;;1.88;0.75;;;;;;;;;;5005614;28;20369;-85
2023/11/05 08:39:28;;;;;;;4.63;1.15;;;;;;;;;;5018850;28;20033;-85
2023/11/05 08:41:55;;;;;;;1.70;1.00;;;;;;;;;;5043531;28;20159;-84
2023/11/05 08:44:21;;;;;;;1.80;0.90;;;;;;;;;;5043246;28;20073;-84
2023/11/05 08:46:48;;;;;;;2.90;1.75;;;;;;;;;;5023832;28;20051;-83
2023/11/05 08:49:14;;;;;;;1.42;1.10;;;;;;;;;;5025116;28;20025;-83
2023/11/05 08:51:39;;;;;;;3.42;1.52;;;;;;;;;;5042086;28;20084;-83
2023/11/05 08:54:11;;;;;;;1.73;0.90;;;;;;;;;;5040279;28;20060;-85
2023/11/05 08:56:38;;;;;;;;;;;;;;;;;;5024550;28;20041;-82
2023/11/05 08:59:04;;;;;;;4.13;2.28;;;;;;;;;;5039199;28;19913;-82
2023/11/05 09:01:30;;;;;;;1.45;0.82;;;;;;;;;;5040561;28;20076;-84
2023/11/05 09:03:56;;;;;;;1.45;0.75;;;;;;;;;;4988981;28;20040;-84
2023/11/05 09:06:23;;;;;;;0.95;0.80;;;;;;;;;;5004683;28;20076;-82
2023/11/05 09:08:49;;;;;;;0.70;0.63;;;;;;;;;;5022344;28;20014;-85
2023/11/05 09:11:14;;;;;;;6.60;1.45;;;;;;;;;;5021979;28;20045;-82
2023/11/05 09:13:40;;;;;;;1.25;0.65;;;;;;;;;;5005645;28;20121;-82
2023/11/05 09:16:06;;;;;;;10.38;1.30;;;;;;;;;;5025687;28;20125;-85
2023/11/05 09:18:32;;;;;;;1.05;0.68;;;;;;;;;;5026453;28;20081;-85
2023/11/05 09:20:58;;;;;;;2.15;0.73;;;;;;;;;;5026450;28;20040;-83
2023/11/05 09:23:24;;;;;;;1.80;0.68;;;;;;;;;;5026325;28;20113;-84
2023/11/05 09:25:50;;;;;;;1.65;0.88;;;;;;;;;;5009550;28;20026;-84
2023/11/05 09:28:18;;;;;;;1.48;0.90;;;;;;;;;;5046531;28;20029;-84
2023/11/05 09:30:45;;;;;;;3.47;0.85;;;;;;;;;;5030704;28;20081;-83
2023/11/05 09:33:12;;;;;;;1.00;0.70;;;;;;;;;;5030854;28;20041;-85
2023/11/05 09:35:38;;;;;;;1.55;0.80;;;;;;;;;;5030661;28;20033;-82
2023/11/05 09:38:04;;;;;;;1.75;0.70;;;;;;;;;;5045757;28;20024;-81
2023/11/05 09:40:34;;;;;;;1.15;0.80;;;;;;;;;;5029487;28;20021;-80
2023/11/05 09:43:05;;;;;;;2.05;0.90;;;;;;;;;;5045909;28;20028;-83
2023/11/05 09:45:35;;;;;;;0.80;0.50;;;;;;;;;;5028428;28;20025;-85
2023/11/05 09:48:08;;;;;;;1.60;1.02;;;;;;;;;;5029098;28;20025;-85
2023/11/05 09:50:36;;;;;;;0.98;0.50;;;;;;;;;;5037424;28;20474;-83
2023/11/05 09:53:04;;;;;;;0.60;0.60;;;;;;;;;;5042747;28;20030;-84
2023/11/05 09:55:30;;;;;;;1.67;0.80;;;;;;;;;;5026272;28;20030;-84
2023/11/05 09:57:57;;;;;;;1.58;0.93;;;;;;;;;;5024753;28;20030;-85
2023/11/05 10:00:22;;;;;;;0.82;0.47;;;;;;;;;;5025535;28;20064;-84
2023/11/05 10:02:55;;;;;;;2.50;1.17;;;;;;;;;;5025135;28;20061;-83
2023/11/05 10:05:23;;;;;;;3.28;1.13;;;;;;;;;;5025258;28;20033;-81
2023/11/05 10:07:48;;;;;;;0.70;0.50;;;;;;;;;;5025197;28;20028;-83
2023/11/05 10:10:15;;;;;;;2.45;1.05;;;;;;;;;;5024598;28;20049;-86
2023/11/05 10:12:42;;;;;;;2.83;1.27;;;;;;;;;;5040472;28;20034;-87
2023/11/05 10:15:08;;;;;;;2.47;0.93;;;;;;;;;;5025393;28;20022;-83
2023/11/05 10:17:33;;;;;;;1.08;0.70;;;;;;;;;;5025434;28;20033;-85
2023/11/05 10:19:59;;;;;;;3.13;1.00;;;;;;;;;;5040983;28;20045;-84
2023/11/05 10:22:25;;;;;;;1.02;0.95;;;;;;;;;;5046578;28;20017;-85
2023/11/05 10:24:51;;;;;;;1.40;0.73;;;;;;;;;;5028609;28;20035;-85
2023/11/05 10:27:30;;;;;;;1.35;0.65;;;;;;;;;;5045232;28;20299;-83
2023/11/05 10:29:56;;;;;;;1.35;0.57;;;;;;;;;;5028231;28;20055;-85
2023/11/05 10:32:27;;;;;;;0.82;0.68;;;;;;;;;;5028099;28;20026;-85
2023/11/05 10:34:55;;;;;;;1.95;0.80;;;;;;;;;;5042488;28;20060;-85
2023/11/05 10:37:21;;;;;;;1.52;0.82;;;;;;;;;;5025438;28;20032;-85
2023/11/05 10:39:47;;;;;;;4.05;1.58;;;;;;;;;;5044835;28;20108;-85
2023/11/05 10:42:14;;;;;;;2.08;0.63;;;;;;;;;;5045719;28;20025;-86
2023/11/05 10:44:45;;;;;;;1.10;0.30;;;;;;;;;;5047448;28;20124;-84
2023/11/05 10:47:14;;;;;;;4.10;0.57;;;;;;;;;;5030730;28;20017;-84
2023/11/05 10:49:40;;;;;;;1.75;0.80;;;;;;;;;;5015137;28;20109;-81
2023/11/05 10:52:07;;;;;;;1.77;0.70;;;;;;;;;;5030300;28;20085;-87
2023/11/05 10:54:34;;;;;;;1.35;0.40;;;;;;;;;;5030285;28;20025;-82
2023/11/05 10:57:00;;;;;;;0.70;0.68;;;;;;;;;;5047860;28;20031;-84
2023/11/05 10:59:44;;;;;;;0.70;0.55;;;;;;;;;;5046737;28;20097;-86
2023/11/05 11:02:13;;;;;;;1.30;0.70;;;;;;;;;;5047218;28;20092;-85
2023/11/05 11:04:39;;;;;;;3.03;0.80;;;;;;;;;;5047450;28;20025;-85
2023/11/05 11:07:04;;;;;;;0.47;0.32;;;;;;;;;;5048614;28;20029;-85
2023/11/05 11:09:30;;;;;;;1.35;0.40;;;;;;;;;;5048128;28;20040;-84
2023/11/05 11:12:18;;;;;;;1.05;0.60;;;;;;;;;;5047275;28;20030;-85
2023/11/05 11:14:45;;;;;;;0.47;0.30;;;;;;;;;;5048189;28;20025;-85
2023/11/05 11:17:14;;;;;;;0.50;0.40;;;;;;;;;;5048078;28;20047;-84
2023/11/05 11:19:42;;;;;;;0.50;0.40;;;;;;;;;;5047685;28;20662;-83
2023/11/05 11:22:08;;;;;;;3.17;0.40;;;;;;;;;;5046011;28;20403;-86
2023/11/05 11:24:39;;;;;;;0.22;0.20;;;;;;;;;;5046999;28;20079;-86
2023/11/05 11:27:07;;;;;;;1.17;0.40;;;;;;;;;;5048274;28;20465;-83
2023/11/05 11:29:37;;;;;;;1.98;0.40;;;;;;;;;;5047928;28;20022;-81
2023/11/05 11:32:05;;;;;;;1.08;0.50;;;;;;;;;;5029710;28;20013;-86
2023/11/05 11:34:31;;;;;;;1.35;0.28;;;;;;;;;;5029546;28;20040;-86
2023/11/05 11:36:58;;;;;;;0.47;0.20;;;;;;;;;;5046530;28;20025;-82
2023/11/05 11:39:26;;;;;;;0.57;0.20;;;;;;;;;;5028451;28;20033;-84
2023/11/05 11:41:52;;;;;;;0.38;0.20;;;;;;;;;;5029600;28;20026;-82
2023/11/05 11:44:18;;;;;;;0.65;0.30;;;;;;;;;;5046743;28;20017;-83
2023/11/05 11:46:45;;;;;;;0.52;0.17;;;;;;;;;;5029977;28;20469;-85
2023/11/05 11:49:11;;;;;;;1.13;0.60;;;;;;;;;;5029664;28;20056;-84
2023/11/05 11:51:38;;;;;;;0.75;0.40;;;;;;;;;;5047558;28;20021;-84
2023/11/05 11:54:04;;;;;;;0.30;0.30;;;;;;;;;;5029943;28;20104;-84
2023/11/05 11:56:31;;;;;;;2.20;1.17;;;;;;;;;;5029660;28;20022;-85
2023/11/05 11:59:05;;;;;;;0.85;0.22;;;;;;;;;;5046138;28;20065;-85
2023/11/05 12:01:32;;;;;;;3.95;1.00;;;;;;;;;;5014052;28;20025;-84
2023/11/05 12:03:58;;;;;;;1.30;0.50;;;;;;;;;;5029418;28;20056;-83
2023/11/05 12:06:27;;;;;;;0.60;0.60;;;;;;;;;;5046495;28;20506;-83
2023/11/05 12:08:54;;;;;;;1.08;0.22;;;;;;;;;;5047759;28;20025;-82
2023/11/05 12:11:20;;;;;;;0.38;0.38;;;;;;;;;;5047208;28;20017;-84
2023/11/05 12:13:46;;;;;;;3.80;0.75;;;;;;;;;;5047354;28;20033;-84
2023/11/05 12:16:17;;;;;;;1.10;0.55;;;;;;;;;;5013143;28;20606;-83
2023/11/05 12:18:44;;;;;;;0.20;0.20;;;;;;;;;;5024987;28;20125;-83
2023/11/05 12:21:12;;;;;;;0.20;0.20;;;;;;;;;;5027500;28;20029;-85
2023/11/05 12:23:39;;;;;;;1.02;0.40;;;;;;;;;;5030597;28;20026;-84
2023/11/05 12:26:08;;;;;;;0.55;0.30;;;;;;;;;;5047841;28;20104;-83
2023/11/05 12:28:34;;;;;;;4.30;0.47;;;;;;;;;;5029507;28;20020;-80
2023/11/05 12:31:02;;;;;;;0.40;0.40;;;;;;;;;;5013642;28;20021;-84
2023/11/05 12:33:35;;;;;;;1.30;0.43;;;;;;;;;;5047755;28;20025;-85
2023/11/05 12:36:01;;;;;;;2.10;0.50;;;;;;;;;;5046526;28;20026;-86
2023/11/05 12:38:27;;;;;;;1.83;0.40;;;;;;;;;;5047782;28;20530;-84
2023/11/05 12:40:56;;;;;;;0.30;0.30;;;;;;;;;;5031425;28;20033;-85
2023/11/05 12:43:23;;;;;;;1.23;0.50;;;;;;;;;;5031866;28;20040;-85
2023/11/05 13:02:25;;;;;;;3.85;0.55;;;;;;;;;;5082858;28;20399;-75
2023/11/05 13:04:51;;;;;;;0.95;0.57;;;;;;;;;;5066502;28;20133;-74
2023/11/05 13:07:16;;;;;;;0.32;0.30;;;;;;;;;;5066685;28;20119;-74
2023/11/05 13:09:43;;;;;;;1.30;0.30;;;;;;;;;;5068168;28;20024;-75
2023/11/05 13:12:11;;;;;;;0.32;0.30;;;;;;;;;;5070341;28;20021;-75
2023/11/05 13:14:36;;;;;;;1.63;0.50;;;;;;;;;;5073563;28;20024;-75
2023/11/05 13:17:04;;;;;;;0.43;0.28;;;;;;;;;;5080825;28;20098;-75
2023/11/05 13:19:32;;;;;;;0.20;0.20;;;;;;;;;;5080399;28;20082;-74
2023/11/05 13:21:58;;;;;;;1.02;0.32;;;;;;;;;;5071516;28;20043;-73
2023/11/05 13:24:23;;;;;;;1.08;0.32;;;;;;;;;;5067242;28;20056;-75
2023/11/05 13:26:49;;;;;;;0.57;0.30;;;;;;;;;;5066297;28;20085;-74
2023/11/05 13:29:15;;;;;;;2.67;0.30;;;;;;;;;;5066199;28;20020;-74
2023/11/05 13:31:41;;;;;;;1.02;0.57;;;;;;;;;;5065954;28;20074;-76
2023/11/05 13:34:06;;;;;;;2.40;0.82;;;;;;;;;;5067092;28;20539;-75
2023/11/05 13:36:32;;;;;;;0.65;0.50;;;;;;;;;;5067204;28;20426;-75
2023/11/05 13:38:59;;;;;;;2.65;0.43;;;;;;;;;;5065870;28;20035;-75
2023/11/05 13:41:25;;;;;;;3.50;1.77;;;;;;;;;;5065054;28;20074;-75
2023/11/05 13:43:50;;;;;;;1.33;0.73;;;;;;;;;;5066362;28;20083;-76
2023/11/05 13:46:17;;;;;;;0.82;0.43;;;;;;;;;;5064411;28;20032;-74
2023/11/05 13:48:42;;;;;;;2.67;0.40;;;;;;;;;;5064385;28;20104;-76
2023/11/05 13:51:08;;;;;;;0.50;0.50;;;;;;;;;;5064702;28;20324;-75
2023/11/05 13:53:33;;;;;;;4.68;0.50;;;;;;;;;;5064865;28;20380;-75
2023/11/05 13:55:59;;;;;;;1.17;0.63;;;;;;;;;;5063616;28;20055;-75
2023/11/05 13:58:25;;;;;;;0.63;0.38;;;;;;;;;;5046062;28;20124;-75
2023/11/05 14:00:53;;;;;;;0.75;0.50;;;;;;;;;;5053770;28;20492;-74
2023/11/05 14:03:19;;;;;;;1.15;0.60;;;;;;;;;;5052856;28;20048;-76
2023/11/05 14:05:45;;;;;;;0.50;0.38;;;;;;;;;;5053129;28;20025;-75
2023/11/05 14:08:10;;;;;;;0.47;0.47;;;;;;;;;;5047345;28;20035;-75
2023/11/05 14:10:39;;;;;;;3.65;0.52;;;;;;;;;;5051798;28;20024;-75
2023/11/05 14:13:05;;;;;;;1.00;0.68;;;;;;;;;;5051655;28;20120;-76
2023/11/05 14:15:31;;;;;;;1.67;0.70;;;;;;;;;;5052867;28;20103;-74
2023/11/05 14:17:57;;;;;;;9.50;2.55;;;;;;;;;;5034512;28;20044;-75
2023/11/05 14:20:22;;;;;;;3.20;1.85;;;;;;;;;;5032640;28;20025;-74
2023/11/05 14:22:48;;;;;;;4.28;2.42;;;;;;;;;;5032639;28;20425;-76
2023/11/05 14:25:14;;;;;;;4.18;1.08;;;;;;;;;;5032770;28;20045;-75
2023/11/05 14:27:40;;;;;;;0.60;0.57;;;;;;;;;;5045216;28;20067;-74
2023/11/05 14:30:06;;;;;;;0.40;0.40;;;;;;;;;;5051525;28;20021;-75
2023/11/05 14:32:32;;;;;;;2.75;0.80;;;;;;;;;;5051721;28;20514;-73
2023/11/05 14:34:58;;;;;;;2.33;1.17;;;;;;;;;;5051622;28;20027;-75
2023/11/05 14:37:26;;;;;;;1.75;0.70;;;;;;;;;;5040798;28;20397;-75
2023/11/05 14:39:52;;;;;;;5.95;2.90;;;;;;;;;;5031355;28;20032;-75
2023/11/05 14:42:18;;;;;;;1.13;0.90;;;;;;;;;;5032636;28;20029;-75
2023/11/05 14:44:43;;;;;;;1.60;0.60;;;;;;;;;;5032490;28;20026;-74
2023/11/05 14:47:09;;;;;;;1.75;0.70;;;;;;;;;;5031480;28;20755;-76
2023/11/05 14:49:35;;;;;;;6.40;1.58;;;;;;;;;;5030679;28;20029;-73
2023/11/05 14:52:02;;;;;;;1.48;0.75;;;;;;;;;;5031230;28;20021;-73
2023/11/05 14:54:30;;;;;;;1.55;0.63;;;;;;;;;;5030341;28;20057;-74